createdAt,value
2023-04-21T00:02:13.294Z,3
2023-04-21T00:06:13.052Z,3
2023-04-21T00:10:13.092Z,1
2023-04-21T00:14:13.147Z,1
2023-04-21T00:18:13.431Z,1
2023-04-21T00:22:13.254Z,1
2023-04-21T00:26:13.388Z,3
2023-04-21T00:30:13.456Z,3
2023-04-21T00:34:12.634Z,1
2023-04-21T00:38:12.554Z,1
2023-04-21T00:42:12.645Z,1
2023-04-21T00:46:12.743Z,1
2023-04-21T00:50:12.866Z,3
2023-04-21T00:54:12.657Z,1
2023-04-21T00:58:12.736Z,1
2023-04-21T01:02:12.998Z,1
2023-04-21T01:06:12.763Z,1
2023-04-21T01:10:12.947Z,0
2023-04-21T01:14:13.040Z,1
2023-04-21T01:18:13.070Z,1
2023-04-21T01:22:12.980Z,3
2023-04-21T01:26:13.121Z,3
2023-04-21T01:30:13.172Z,3
2023-04-21T01:34:13.051Z,1
2023-04-21T01:38:12.920Z,3
2023-04-21T01:42:13.035Z,1
2023-04-21T01:46:13.121Z,1
2023-04-21T01:50:13.136Z,3
2023-04-21T01:54:13.154Z,1
2023-04-21T01:58:13.151Z,1
2023-04-21T02:02:13.600Z,1
2023-04-21T02:06:12.535Z,1
2023-04-21T02:10:13.504Z,1
2023-04-21T02:14:13.404Z,3
2023-04-21T02:18:12.792Z,1
2023-04-21T02:22:12.496Z,1
2023-04-21T02:26:12.583Z,1
2023-04-21T02:30:12.724Z,3
2023-04-21T02:34:12.824Z,1
2023-04-21T02:38:13.019Z,1
2023-04-21T02:42:13.129Z,3
2023-04-21T02:46:13.172Z,3
2023-04-21T02:50:12.695Z,3
2023-04-21T02:54:12.706Z,3
2023-04-21T02:58:12.668Z,3
2023-04-21T03:02:12.914Z,3
2023-04-21T03:06:12.902Z,3
2023-04-21T03:10:13.164Z,3
2023-04-21T03:14:13.483Z,3
2023-04-21T03:18:13.042Z,3
2023-04-21T03:22:12.757Z,3
2023-04-21T03:26:12.700Z,3
2023-04-21T03:30:12.829Z,3
2023-04-21T03:34:12.988Z,3
2023-04-21T03:38:15.582Z,3
2023-04-21T03:42:12.602Z,3
2023-04-21T03:46:13.403Z,3
2023-04-21T03:50:13.264Z,1
2023-04-21T03:54:13.319Z,1
2023-04-21T03:58:13.449Z,1
2023-04-21T04:02:12.971Z,3
2023-04-21T04:06:12.957Z,3
2023-04-21T04:10:13.217Z,3
2023-04-21T04:14:13.468Z,3
2023-04-21T04:18:12.720Z,3
2023-04-21T04:22:12.683Z,3
2023-04-21T04:26:12.812Z,3
2023-04-21T04:30:12.930Z,3
2023-04-21T04:34:13.017Z,3
2023-04-21T04:38:13.134Z,1
2023-04-21T04:42:13.091Z,1
2023-04-21T04:46:13.383Z,1
2023-04-21T04:50:13.281Z,1
2023-04-21T04:54:13.321Z,1
2023-04-21T04:58:13.376Z,1
2023-04-21T05:02:13.449Z,1
2023-04-21T05:06:13.339Z,1
2023-04-21T05:10:13.280Z,1
2023-04-21T05:14:13.414Z,1
2023-04-21T05:18:13.555Z,1
2023-04-21T05:22:12.505Z,1
2023-04-21T05:26:16.024Z,1
2023-04-21T05:30:13.196Z,1
2023-04-21T05:34:13.151Z,1
2023-04-21T05:38:13.192Z,1
2023-04-21T05:42:13.021Z,3
2023-04-21T05:46:13.097Z,3
2023-04-21T05:50:12.976Z,3
2023-04-21T05:54:13.063Z,3
2023-04-21T05:58:13.030Z,3
2023-04-21T06:02:13.543Z,3
2023-04-21T06:06:12.568Z,3
2023-04-21T06:10:12.653Z,3
2023-04-21T06:14:12.776Z,3
2023-04-21T06:18:12.951Z,3
2023-04-21T06:22:12.964Z,3
2023-04-21T06:26:13.107Z,3
2023-04-21T06:30:13.218Z,3
2023-04-21T06:34:13.417Z,3
2023-04-21T06:38:12.674Z,3
2023-04-21T06:42:12.643Z,3
2023-04-21T06:46:12.687Z,3
2023-04-21T06:50:12.747Z,3
2023-04-21T06:54:12.957Z,3
2023-04-21T06:58:12.913Z,3
2023-04-21T07:02:13.610Z,4
2023-04-21T07:06:12.545Z,3
2023-04-21T07:10:12.519Z,3
2023-04-21T07:14:12.590Z,3
2023-04-21T07:18:13.025Z,3
2023-04-21T07:22:12.663Z,3
2023-04-21T07:26:12.595Z,3
2023-04-21T07:30:12.987Z,3
2023-04-21T07:34:12.786Z,3
2023-04-21T07:38:12.699Z,3
2023-04-21T07:42:12.904Z,4
2023-04-21T07:46:12.864Z,4
2023-04-21T07:50:12.953Z,3
2023-04-21T07:54:13.132Z,3
2023-04-21T07:58:12.960Z,3
2023-04-21T08:02:13.285Z,3
2023-04-21T08:06:13.583Z,3
2023-04-21T08:10:13.305Z,3
2023-04-21T08:14:13.253Z,3
2023-04-21T08:18:13.381Z,3
2023-04-21T08:22:13.537Z,3
2023-04-21T08:26:13.277Z,3
2023-04-21T08:30:13.332Z,3
2023-04-21T08:34:14.430Z,3
2023-04-21T08:38:12.606Z,3
2023-04-21T08:42:12.525Z,4
2023-04-21T08:46:12.639Z,4
2023-04-21T08:50:13.475Z,3
2023-04-21T08:54:12.729Z,4
2023-04-21T08:58:12.749Z,4
2023-04-21T09:02:13.763Z,3
2023-04-21T09:06:13.529Z,3
2023-04-21T09:10:13.515Z,3
2023-04-21T09:14:13.410Z,4
2023-04-21T09:18:13.288Z,3
2023-04-21T09:22:13.264Z,3
2023-04-21T09:26:13.379Z,3
2023-04-21T09:30:12.617Z,3
2023-04-21T09:34:13.287Z,3
2023-04-21T09:38:12.583Z,4
2023-04-21T09:42:12.935Z,4
2023-04-21T09:46:13.756Z,4
2023-04-21T09:50:14.020Z,4
2023-04-21T09:54:25.895Z,3
2023-04-21T09:58:12.704Z,3
2023-04-21T10:02:14.020Z,2
2023-04-21T10:06:12.721Z,4
2023-04-21T10:10:12.708Z,4
2023-04-21T10:14:12.852Z,4
2023-04-21T10:18:12.916Z,4
2023-04-21T10:22:12.908Z,4
2023-04-21T10:26:12.912Z,4
2023-04-21T10:30:13.010Z,4
2023-04-21T10:34:13.103Z,4
2023-04-21T10:38:13.211Z,4
2023-04-21T10:42:13.266Z,4
2023-04-21T10:46:13.134Z,4
2023-04-21T10:50:13.260Z,4
2023-04-21T10:54:12.998Z,4
2023-04-21T10:58:13.024Z,4
2023-04-21T11:02:13.151Z,6
2023-04-21T11:06:12.744Z,4
2023-04-21T11:10:12.756Z,4
2023-04-21T11:14:12.798Z,5
2023-04-21T11:18:12.994Z,5
2023-04-21T11:22:12.930Z,5
2023-04-21T11:26:12.827Z,5
2023-04-21T11:30:12.857Z,4
2023-04-21T11:34:12.898Z,4
2023-04-21T11:38:12.958Z,5
2023-04-21T11:42:13.160Z,5
2023-04-21T11:46:13.172Z,4
2023-04-21T11:50:13.172Z,4
2023-04-21T11:54:13.208Z,7
2023-04-21T11:58:13.111Z,7
2023-04-21T12:02:12.669Z,4
2023-04-21T12:06:12.795Z,4
2023-04-21T12:10:13.174Z,5
2023-04-21T12:14:13.172Z,7
2023-04-21T12:18:13.414Z,4
2023-04-21T12:22:13.324Z,5
2023-04-21T12:26:13.389Z,5
2023-04-21T12:30:13.336Z,5
2023-04-21T12:34:13.421Z,5
2023-04-21T12:38:13.497Z,5
2023-04-21T12:42:12.657Z,5
2023-04-21T12:46:12.802Z,5
2023-04-21T12:50:12.823Z,5
2023-04-21T12:54:12.992Z,6
2023-04-21T12:58:13.126Z,5
2023-04-21T13:02:13.400Z,4
2023-04-21T13:06:13.265Z,7
2023-04-21T13:10:13.194Z,8
2023-04-21T13:14:13.022Z,7
2023-04-21T13:18:13.001Z,6
2023-04-21T13:22:12.822Z,5
2023-04-21T13:26:12.850Z,5
2023-04-21T13:30:12.981Z,5
2023-04-21T13:34:13.186Z,7
2023-04-21T13:38:12.943Z,7
2023-04-21T13:42:13.050Z,5
2023-04-21T13:46:13.135Z,5
2023-04-21T13:50:13.197Z,7
2023-04-21T13:54:13.182Z,6
2023-04-21T13:58:13.239Z,6
2023-04-21T14:02:13.884Z,8
2023-04-21T14:06:12.551Z,6
2023-04-21T14:10:12.562Z,5
2023-04-21T14:14:31.337Z,5
2023-04-21T14:18:13.062Z,6
2023-04-21T14:22:12.977Z,7
2023-04-21T14:26:12.967Z,5
2023-04-21T14:30:13.503Z,6
2023-04-21T14:34:13.338Z,6
2023-04-21T14:38:13.210Z,7
2023-04-21T14:42:13.211Z,5
2023-04-21T14:46:13.090Z,7
2023-04-21T14:50:13.241Z,6
2023-04-21T14:54:13.237Z,7
2023-04-21T14:58:13.195Z,7
2023-04-21T15:02:13.846Z,7
2023-04-21T15:06:13.387Z,7
2023-04-21T15:10:13.485Z,8
2023-04-21T15:14:13.119Z,7
2023-04-21T15:18:13.283Z,7
2023-04-21T15:22:13.217Z,6
2023-04-21T15:26:13.291Z,8
2023-04-21T15:30:13.237Z,7
2023-04-21T15:34:13.141Z,7
2023-04-21T15:38:12.666Z,7
2023-04-21T15:42:12.510Z,6
2023-04-21T15:46:12.733Z,5
2023-04-21T15:50:12.759Z,7
2023-04-21T15:54:12.882Z,6
2023-04-21T15:58:12.987Z,7
2023-04-21T16:02:13.376Z,8
2023-04-21T16:06:13.642Z,7
2023-04-21T16:10:13.467Z,7
2023-04-21T16:14:13.470Z,6
2023-04-21T16:18:13.026Z,7
2023-04-21T16:22:13.152Z,11
2023-04-21T16:26:13.394Z,8
2023-04-21T16:30:13.430Z,8
2023-04-21T16:34:13.307Z,8
2023-04-21T16:38:13.267Z,7
2023-04-21T16:42:13.306Z,6
2023-04-21T16:46:12.612Z,8
2023-04-21T16:50:13.552Z,9
2023-04-21T16:54:12.779Z,7
2023-04-21T16:58:12.890Z,7
2023-04-21T17:02:12.878Z,8
2023-04-21T17:06:12.682Z,9
2023-04-21T17:10:12.788Z,8
2023-04-21T17:14:12.864Z,8
2023-04-21T17:18:13.077Z,9
2023-04-21T17:22:13.038Z,7
2023-04-21T17:26:13.448Z,8
2023-04-21T17:30:13.328Z,7
2023-04-21T17:34:13.211Z,7
2023-04-21T17:38:13.306Z,7
2023-04-21T17:42:12.561Z,9
2023-04-21T17:46:12.806Z,8
2023-04-21T17:50:12.954Z,7
2023-04-21T17:54:12.970Z,7
2023-04-21T17:58:13.196Z,9
2023-04-21T18:02:13.659Z,8
2023-04-21T18:06:13.454Z,7
2023-04-21T18:10:13.401Z,9
2023-04-21T18:14:13.337Z,9
2023-04-21T18:18:12.572Z,6
2023-04-21T18:22:12.702Z,7
2023-04-21T18:26:12.871Z,9
2023-04-21T18:30:13.027Z,9
2023-04-21T18:34:13.230Z,6
2023-04-21T18:38:13.363Z,7
2023-04-21T18:42:13.511Z,4
2023-04-21T18:46:12.505Z,7
2023-04-21T18:50:12.751Z,10
2023-04-21T18:54:12.960Z,9
2023-04-21T18:58:13.778Z,6
2023-04-21T19:02:13.600Z,7
2023-04-21T19:06:13.437Z,6
2023-04-21T19:10:13.548Z,7
2023-04-21T19:14:14.083Z,9
2023-04-21T19:18:13.349Z,7
2023-04-21T19:22:13.408Z,7
2023-04-21T19:26:13.557Z,7
2023-04-21T19:30:12.750Z,4
2023-04-21T19:34:13.455Z,6
2023-04-21T19:38:12.570Z,7
2023-04-21T19:42:12.848Z,6
2023-04-21T19:46:13.050Z,9
2023-04-21T19:50:13.273Z,7
2023-04-21T19:54:23.499Z,6
2023-04-21T19:58:12.573Z,6
2023-04-21T20:02:13.216Z,7
2023-04-21T20:06:13.024Z,9
2023-04-21T20:10:13.044Z,10
2023-04-21T20:14:13.238Z,9
2023-04-21T20:18:13.599Z,4
2023-04-21T20:22:13.266Z,7
2023-04-21T20:26:13.372Z,9
2023-04-21T20:30:12.621Z,6
2023-04-21T20:34:12.714Z,6
2023-04-21T20:38:12.924Z,7
2023-04-21T20:42:24.561Z,9
2023-04-21T20:46:13.367Z,9
2023-04-21T20:50:13.592Z,7
2023-04-21T20:54:12.809Z,6
2023-04-21T20:58:12.755Z,6
2023-04-21T21:02:13.235Z,6
2023-04-21T21:06:13.110Z,6
2023-04-21T21:10:15.522Z,6
2023-04-21T21:14:13.507Z,9
2023-04-21T21:18:12.747Z,4
2023-04-21T21:22:12.723Z,6
2023-04-21T21:26:12.795Z,7
2023-04-21T21:30:13.063Z,4
2023-04-21T21:34:13.055Z,6
2023-04-21T21:38:13.114Z,7
2023-04-21T21:42:12.964Z,6
2023-04-21T21:46:13.343Z,7
2023-04-21T21:50:13.476Z,7
2023-04-21T21:54:12.633Z,6
2023-04-21T21:58:12.809Z,7
2023-04-21T22:02:12.909Z,6
2023-04-21T22:06:14.301Z,6
2023-04-21T22:10:13.006Z,7
2023-04-21T22:14:30.128Z,6
2023-04-21T22:18:13.156Z,6
2023-04-21T22:22:13.180Z,6
2023-04-21T22:26:13.251Z,6
2023-04-21T22:30:13.521Z,4
2023-04-21T22:34:12.503Z,6
2023-04-21T22:38:12.705Z,7
2023-04-21T22:42:12.942Z,4
2023-04-21T22:46:13.556Z,7
2023-04-21T22:50:12.540Z,7
2023-04-21T22:54:12.907Z,4
2023-04-21T22:58:15.502Z,4
2023-04-21T23:02:13.471Z,6
2023-04-21T23:06:13.466Z,6
2023-04-21T23:10:13.560Z,4
2023-04-21T23:14:12.682Z,6
2023-04-21T23:18:12.847Z,6
2023-04-21T23:22:12.865Z,3
2023-04-21T23:26:13.002Z,6
2023-04-21T23:30:13.184Z,4
2023-04-21T23:34:13.295Z,6
2023-04-21T23:38:13.438Z,4
2023-04-21T23:42:12.577Z,3
2023-04-21T23:46:12.927Z,4
2023-04-21T23:50:12.772Z,4
2023-04-21T23:54:12.833Z,6
2023-04-21T23:58:12.906Z,6
